createdAt,value
2022-08-24T00:00:41.139Z,87.69
2022-08-24T00:03:11.994Z,87.69
2022-08-24T00:05:40.407Z,87.80
2022-08-24T00:08:08.380Z,88.05
2022-08-24T00:10:36.583Z,87.94
2022-08-24T00:13:05.969Z,87.81
2022-08-24T00:15:34.246Z,87.76
2022-08-24T00:18:02.381Z,87.77
2022-08-24T00:20:30.611Z,87.81
2022-08-24T00:22:59.413Z,87.88
2022-08-24T00:25:27.647Z,88.16
2022-08-24T00:27:55.772Z,88.27
2022-08-24T00:30:25.976Z,88.36
2022-08-24T00:32:54.767Z,88.80
2022-08-24T00:35:23.001Z,89.00
2022-08-24T00:37:52.384Z,89.18
2022-08-24T00:40:23.213Z,89.17
2022-08-24T00:42:51.628Z,89.42
2022-08-24T00:45:20.339Z,89.55
2022-08-24T00:47:53.362Z,89.69
2022-08-24T00:50:24.885Z,89.85
2022-08-24T00:52:58.035Z,90.07
2022-08-24T00:55:29.494Z,90.28
2022-08-24T00:58:01.539Z,90.32
2022-08-24T01:00:32.268Z,90.36
2022-08-24T01:03:04.727Z,90.52
2022-08-24T01:05:33.747Z,90.71
2022-08-24T01:08:03.472Z,90.66
2022-08-24T01:10:34.743Z,90.75
2022-08-24T01:13:05.792Z,90.63
2022-08-24T01:15:37.544Z,90.95
2022-08-24T01:18:25.790Z,90.93
2022-08-24T01:20:57.895Z,91.10
2022-08-24T01:23:36.989Z,91.53
2022-08-24T01:26:05.458Z,91.58
2022-08-24T01:28:36.967Z,91.71
2022-08-24T01:31:05.557Z,91.49
2022-08-24T01:33:33.847Z,91.58
2022-08-24T01:36:04.699Z,91.71
2022-08-24T01:38:34.518Z,91.99
2022-08-24T01:41:04.013Z,92.11
2022-08-24T01:43:32.422Z,92.46
2022-08-24T01:46:05.472Z,92.64
2022-08-24T01:48:33.468Z,93.12
2022-08-24T01:51:01.456Z,93.48
2022-08-24T01:53:30.148Z,93.61
2022-08-24T01:55:59.468Z,93.62
2022-08-24T01:58:27.420Z,93.64
2022-08-24T02:00:55.704Z,93.50
2022-08-24T02:03:29.479Z,93.30
2022-08-24T02:05:58.973Z,93.02
2022-08-24T02:08:27.589Z,93.00
2022-08-24T02:10:57.032Z,92.87
2022-08-24T02:13:27.056Z,92.61
2022-08-24T02:15:55.365Z,92.51
2022-08-24T02:18:23.405Z,92.38
2022-08-24T02:20:51.527Z,92.41
2022-08-24T02:23:20.353Z,92.40
2022-08-24T02:25:48.585Z,92.26
2022-08-24T02:28:16.577Z,92.26
2022-08-24T02:30:45.987Z,92.21
2022-08-24T02:33:14.456Z,92.23
2022-08-24T02:35:42.797Z,92.26
2022-08-24T02:38:10.865Z,92.37
2022-08-24T02:40:38.886Z,92.34
2022-08-24T02:43:06.864Z,92.25
2022-08-24T02:45:39.311Z,92.33
2022-08-24T02:48:08.616Z,92.40
2022-08-24T02:50:39.368Z,92.32
2022-08-24T02:53:07.684Z,92.56
2022-08-24T02:55:35.991Z,92.36
2022-08-24T02:58:04.047Z,92.42
2022-08-24T03:00:32.102Z,92.43
2022-08-24T03:03:00.323Z,92.50
2022-08-24T03:05:30.136Z,92.85
2022-08-24T03:07:58.091Z,93.31
2022-08-24T03:10:26.415Z,93.67
2022-08-24T03:12:58.799Z,93.98
2022-08-24T03:15:27.360Z,94.37
2022-08-24T03:17:55.369Z,94.65
2022-08-24T03:20:24.391Z,95.03
2022-08-24T03:22:53.863Z,95.31
2022-08-24T03:25:24.637Z,95.53
2022-08-24T03:27:53.361Z,95.63
2022-08-24T03:30:22.476Z,95.86
2022-08-24T03:32:50.816Z,95.95
2022-08-24T03:35:21.763Z,96.00
2022-08-24T03:37:50.870Z,96.09
2022-08-24T03:40:24.507Z,96.14
2022-08-24T03:42:53.311Z,96.18
2022-08-24T03:45:22.807Z,96.22
2022-08-24T03:47:50.900Z,96.25
2022-08-24T03:50:19.850Z,96.30
2022-08-24T03:52:48.425Z,96.36
2022-08-24T03:55:16.575Z,96.44
2022-08-24T03:57:46.289Z,96.49
2022-08-24T04:00:15.006Z,96.55
2022-08-24T04:02:44.331Z,96.64
2022-08-24T04:05:13.326Z,96.70
2022-08-24T04:07:41.314Z,96.71
2022-08-24T04:10:11.343Z,96.82
2022-08-24T04:12:39.331Z,96.86
2022-08-24T04:15:10.061Z,96.87
2022-08-24T04:17:38.021Z,96.86
2022-08-24T04:20:07.512Z,96.88
2022-08-24T04:22:36.383Z,96.88
2022-08-24T04:25:09.079Z,96.88
2022-08-24T04:27:38.170Z,96.89
2022-08-24T04:30:06.896Z,96.91
2022-08-24T04:32:36.228Z,96.93
2022-08-24T04:35:06.464Z,96.99
2022-08-24T04:37:34.444Z,97.04
2022-08-24T04:40:03.299Z,97.09
2022-08-24T04:42:33.431Z,97.09
2022-08-24T04:45:01.590Z,97.14
2022-08-24T04:47:29.523Z,97.16
2022-08-24T04:49:58.791Z,97.16
2022-08-24T04:52:26.993Z,97.21
2022-08-24T04:54:55.012Z,97.14
2022-08-24T04:57:22.976Z,97.16
2022-08-24T04:59:51.293Z,97.21
2022-08-24T05:02:20.939Z,97.19
2022-08-24T05:04:49.399Z,97.19
2022-08-24T05:07:19.691Z,97.09
2022-08-24T05:09:47.660Z,97.18
2022-08-24T05:12:15.642Z,97.27
2022-08-24T05:14:43.585Z,97.27
2022-08-24T05:17:11.570Z,97.32
2022-08-24T05:19:39.670Z,97.38
2022-08-24T05:22:07.673Z,97.41
2022-08-24T05:24:36.988Z,97.37
2022-08-24T05:27:05.371Z,97.32
2022-08-24T05:29:34.726Z,97.21
2022-08-24T05:32:03.135Z,97.00
2022-08-24T05:34:32.769Z,96.96
2022-08-24T05:37:00.747Z,96.98
2022-08-24T05:39:30.957Z,96.92
2022-08-24T05:42:00.904Z,96.75
2022-08-24T05:44:31.160Z,96.65
2022-08-24T05:46:59.674Z,96.71
2022-08-24T05:49:28.018Z,96.70
2022-08-24T05:51:56.301Z,96.71
2022-08-24T05:54:26.903Z,96.62
2022-08-24T05:56:57.229Z,96.45
2022-08-24T05:59:26.512Z,96.39
2022-08-24T06:01:54.632Z,96.22
2022-08-24T06:04:22.698Z,96.08
2022-08-24T06:06:52.904Z,95.82
2022-08-24T06:09:21.439Z,95.62
2022-08-24T06:11:49.401Z,95.33
2022-08-24T06:14:20.226Z,95.06
2022-08-24T06:16:52.640Z,94.74
2022-08-24T06:19:21.620Z,94.41
2022-08-24T06:21:51.732Z,94.30
2022-08-24T06:24:40.591Z,93.93
2022-08-24T06:27:23.110Z,93.59
2022-08-24T06:29:51.907Z,93.37
2022-08-24T06:32:21.193Z,93.10
2022-08-24T06:34:49.220Z,92.86
2022-08-24T06:37:18.351Z,92.64
2022-08-24T06:39:46.704Z,92.32
2022-08-24T06:42:14.738Z,92.19
2022-08-24T06:44:43.143Z,91.65
2022-08-24T06:47:11.340Z,91.27
2022-08-24T06:49:40.884Z,90.97
2022-08-24T06:52:10.180Z,90.76
2022-08-24T06:54:38.506Z,90.44
2022-08-24T06:57:07.005Z,90.06
2022-08-24T06:59:34.972Z,89.79
2022-08-24T07:02:03.044Z,89.24
2022-08-24T07:04:31.141Z,88.98
2022-08-24T07:07:00.629Z,88.69
2022-08-24T07:09:32.124Z,88.36
2022-08-24T07:12:00.458Z,88.20
2022-08-24T07:14:28.636Z,88.11
2022-08-24T07:16:56.701Z,87.82
2022-08-24T07:19:25.294Z,87.37
2022-08-24T07:21:56.956Z,87.04
2022-08-24T07:24:26.361Z,86.90
2022-08-24T07:26:54.339Z,86.48
2022-08-24T07:29:46.347Z,86.16
2022-08-24T07:32:11.194Z,86.09
2022-08-24T07:34:39.158Z,85.94
2022-08-24T07:37:07.847Z,85.63
2022-08-24T07:39:37.216Z,85.31
2022-08-24T07:42:17.185Z,85.17
2022-08-24T07:44:48.997Z,85.10
2022-08-24T07:50:05.744Z,84.65
2022-08-24T07:52:33.729Z,84.46
2022-08-24T07:55:03.152Z,84.51
2022-08-24T07:57:31.344Z,84.24
2022-08-24T07:59:59.774Z,83.87
2022-08-24T08:02:29.867Z,83.56
2022-08-24T08:05:03.040Z,83.33
2022-08-24T08:07:32.323Z,82.99
2022-08-24T08:10:00.547Z,82.58
2022-08-24T08:12:29.936Z,82.36
2022-08-24T08:14:58.444Z,82.07
2022-08-24T08:17:26.592Z,81.46
2022-08-24T08:19:54.832Z,81.19
2022-08-24T08:22:40.238Z,81.39
2022-08-24T08:25:08.818Z,81.39
2022-08-24T08:27:38.206Z,81.37
2022-08-24T08:30:07.964Z,80.94
2022-08-24T08:32:35.943Z,80.46
2022-08-24T08:35:05.149Z,80.22
2022-08-24T08:37:33.357Z,80.13
2022-08-24T08:40:01.565Z,79.69
2022-08-24T08:42:38.476Z,78.98
2022-08-24T08:45:14.286Z,78.62
2022-08-24T08:48:05.547Z,77.67
2022-08-24T08:50:39.852Z,76.84
2022-08-24T08:53:31.690Z,76.25
2022-08-24T08:56:04.691Z,75.92
2022-08-24T08:58:53.784Z,74.67
2022-08-24T09:01:32.554Z,73.95
2022-08-24T09:04:31.747Z,72.98
2022-08-24T09:07:17.254Z,70.43
2022-08-24T09:09:55.989Z,69.61
2022-08-24T09:12:32.745Z,68.62
2022-08-24T09:15:18.783Z,67.67
2022-08-24T09:17:58.353Z,66.76
2022-08-24T09:20:50.004Z,65.03
2022-08-24T09:23:25.800Z,62.70
2022-08-24T09:26:00.502Z,62.30
2022-08-24T09:28:50.562Z,62.22
2022-08-24T09:31:29.661Z,63.63
2022-08-24T09:34:08.515Z,63.52
2022-08-24T09:36:48.281Z,63.04
2022-08-24T09:39:28.791Z,62.96
2022-08-24T09:42:19.748Z,62.73
2022-08-24T09:45:06.866Z,64.61
2022-08-24T09:47:53.146Z,65.49
2022-08-24T09:50:53.793Z,65.20
2022-08-24T09:53:43.919Z,65.73
2022-08-24T09:56:24.752Z,66.00
2022-08-24T09:59:29.055Z,65.46
2022-08-24T10:02:11.468Z,65.27
2022-08-24T10:04:46.054Z,65.51
2022-08-24T10:07:18.733Z,64.70
2022-08-24T10:10:00.871Z,65.69
2022-08-24T10:12:47.296Z,66.36
2022-08-24T10:15:18.959Z,66.93
2022-08-24T10:17:56.696Z,66.82
2022-08-24T10:20:29.443Z,67.49
2022-08-24T10:23:07.947Z,67.19
2022-08-24T10:25:40.358Z,66.51
2022-08-24T10:28:27.936Z,66.19
2022-08-24T10:31:10.833Z,65.29
2022-08-24T10:33:50.216Z,65.17
2022-08-24T10:36:32.870Z,64.82
2022-08-24T10:39:31.205Z,64.66
2022-08-24T10:42:48.075Z,64.22
2022-08-24T10:45:50.050Z,63.99
2022-08-24T10:48:33.367Z,62.54
2022-08-24T10:51:11.167Z,63.60
2022-08-24T10:53:41.091Z,64.53
2022-08-24T10:56:12.471Z,64.06
2022-08-24T10:58:51.925Z,62.85
2022-08-24T11:01:26.621Z,61.65
2022-08-24T11:03:58.998Z,59.90
2022-08-24T11:06:30.868Z,57.05
2022-08-24T11:09:04.410Z,55.92
2022-08-24T11:11:34.892Z,56.49
2022-08-24T11:14:06.418Z,56.24
2022-08-24T11:16:39.666Z,57.52
2022-08-24T11:19:11.393Z,60.47
2022-08-24T11:21:44.091Z,61.68
2022-08-24T11:24:28.679Z,62.69
2022-08-24T11:26:59.354Z,63.09
2022-08-24T11:29:31.353Z,62.61
2022-08-24T11:31:59.974Z,60.00
2022-08-24T11:34:35.164Z,57.99
2022-08-24T11:37:03.785Z,56.37
2022-08-24T11:39:35.942Z,54.45
2022-08-24T11:42:15.451Z,54.10
2022-08-24T11:44:48.421Z,55.61
2022-08-24T11:47:40.898Z,55.83
2022-08-24T11:50:29.953Z,57.24
2022-08-24T11:53:12.031Z,57.02
2022-08-24T11:55:51.724Z,57.29
2022-08-24T11:58:37.009Z,58.12
2022-08-24T12:01:07.954Z,56.85
2022-08-24T12:03:47.382Z,55.08
2022-08-24T12:06:31.496Z,54.92
2022-08-24T12:09:07.160Z,55.25
2022-08-24T12:11:40.836Z,53.41
2022-08-24T12:14:10.807Z,55.13
2022-08-24T12:16:43.323Z,55.25
2022-08-24T12:19:16.977Z,55.31
2022-08-24T12:21:48.232Z,54.66
2022-08-24T12:24:19.261Z,55.39
2022-08-24T12:26:52.284Z,55.63
2022-08-24T12:29:25.972Z,55.65
2022-08-24T12:31:57.020Z,57.18
2022-08-24T12:34:30.667Z,57.16
2022-08-24T12:37:02.923Z,58.09
2022-08-24T12:39:43.531Z,58.60
2022-08-24T12:42:17.454Z,57.53
2022-08-24T12:44:49.588Z,58.32
2022-08-24T12:47:20.920Z,58.28
2022-08-24T12:49:52.599Z,57.75
2022-08-24T12:52:31.689Z,56.58
2022-08-24T12:55:12.823Z,56.95
2022-08-24T12:58:03.598Z,57.90
2022-08-24T13:00:37.197Z,58.01
2022-08-24T13:03:09.867Z,57.89
2022-08-24T13:05:43.915Z,57.31
2022-08-24T13:08:15.560Z,57.86
2022-08-24T13:10:46.751Z,57.59
2022-08-24T13:13:22.467Z,57.51
2022-08-24T13:16:03.250Z,57.41
2022-08-24T13:18:54.518Z,58.16
2022-08-24T13:21:44.879Z,59.28
2022-08-24T13:24:50.347Z,55.31
2022-08-24T13:28:12.703Z,56.29
2022-08-24T13:31:06.576Z,58.04
2022-08-24T13:33:38.527Z,59.24
2022-08-24T13:36:24.574Z,59.11
2022-08-24T13:39:01.974Z,58.91
2022-08-24T13:41:40.434Z,59.29
2022-08-24T13:44:13.109Z,59.89
2022-08-24T13:46:49.419Z,60.04
2022-08-24T13:49:25.493Z,59.30
2022-08-24T13:51:58.232Z,59.37
2022-08-24T13:54:28.576Z,57.22
2022-08-24T13:57:04.685Z,57.01
2022-08-24T13:59:47.011Z,57.58
2022-08-24T14:02:28.316Z,57.66
2022-08-24T14:05:03.364Z,58.24
2022-08-24T14:07:34.644Z,57.79
2022-08-24T14:10:09.220Z,57.17
2022-08-24T14:12:45.782Z,57.18
2022-08-24T14:15:24.324Z,57.48
2022-08-24T14:18:01.713Z,57.78
2022-08-24T14:20:44.780Z,57.61
2022-08-24T14:23:25.287Z,57.70
2022-08-24T14:26:32.352Z,58.14
2022-08-24T14:29:30.736Z,57.29
2022-08-24T14:32:29.394Z,57.30
2022-08-24T14:35:07.161Z,57.43
2022-08-24T14:37:42.287Z,57.61
2022-08-24T14:40:17.596Z,57.52
2022-08-24T14:42:54.197Z,57.91
2022-08-24T14:45:34.378Z,57.76
2022-08-24T14:48:06.445Z,57.81
2022-08-24T14:50:34.832Z,57.42
2022-08-24T14:53:15.125Z,57.76
2022-08-24T14:55:48.852Z,57.13
2022-08-24T14:58:30.386Z,57.51
2022-08-24T15:01:33.329Z,57.20
2022-08-24T15:04:10.932Z,57.52
2022-08-24T15:06:47.224Z,57.64
2022-08-24T15:09:24.923Z,57.79
2022-08-24T15:11:55.345Z,57.36
2022-08-24T15:14:33.796Z,57.77
2022-08-24T15:17:11.365Z,57.60
2022-08-24T15:19:47.591Z,57.71
2022-08-24T15:22:25.617Z,57.53
2022-08-24T15:24:59.679Z,56.87
2022-08-24T15:27:39.272Z,56.81
2022-08-24T15:30:09.502Z,57.14
2022-08-24T15:32:48.749Z,57.42
2022-08-24T15:35:25.747Z,57.30
2022-08-24T15:37:53.874Z,57.68
2022-08-24T15:40:26.983Z,57.55
2022-08-24T15:42:55.203Z,57.41
2022-08-24T15:45:23.338Z,57.55
2022-08-24T15:47:54.572Z,57.58
2022-08-24T15:50:26.334Z,57.53
2022-08-24T15:52:57.660Z,57.55
2022-08-24T15:55:37.104Z,57.27
2022-08-24T15:58:16.686Z,57.34
2022-08-24T16:01:02.507Z,57.41
2022-08-24T16:03:47.069Z,57.74
2022-08-24T16:06:27.232Z,57.74
2022-08-24T16:08:59.291Z,57.68
2022-08-24T16:11:29.292Z,57.41
2022-08-24T16:13:57.349Z,57.46
2022-08-24T16:16:37.953Z,57.72
2022-08-24T16:19:09.203Z,57.61
2022-08-24T16:21:40.039Z,57.89
2022-08-24T16:24:10.594Z,58.07
2022-08-24T16:26:55.395Z,57.93
2022-08-24T16:29:46.219Z,58.15
2022-08-24T16:32:22.239Z,57.64
2022-08-24T16:35:18.903Z,58.12
2022-08-24T16:37:46.991Z,58.45
2022-08-24T16:40:15.611Z,58.53
2022-08-24T16:42:43.767Z,58.57
2022-08-24T16:45:17.228Z,58.81
2022-08-24T16:47:46.865Z,57.60
2022-08-24T16:50:17.389Z,57.50
2022-08-24T16:52:45.592Z,57.80
2022-08-24T16:55:14.754Z,58.78
2022-08-24T16:57:43.804Z,58.85
2022-08-24T17:00:15.670Z,58.95
2022-08-24T17:02:44.489Z,59.16
2022-08-24T17:05:13.198Z,58.94
2022-08-24T17:07:43.069Z,59.15
2022-08-24T17:10:12.863Z,59.14
2022-08-24T17:12:40.853Z,59.15
2022-08-24T17:15:12.779Z,59.36
2022-08-24T17:17:41.721Z,59.50
2022-08-24T17:20:10.982Z,59.51
2022-08-24T17:22:39.504Z,59.45
2022-08-24T17:25:09.110Z,59.78
2022-08-24T17:27:37.214Z,59.98
2022-08-24T17:30:06.635Z,60.76
2022-08-24T17:32:34.639Z,61.08
2022-08-24T17:35:03.408Z,61.67
2022-08-24T17:37:31.723Z,62.12
2022-08-24T17:40:01.830Z,62.51
2022-08-24T17:42:50.308Z,62.78
2022-08-24T17:45:20.423Z,63.13
2022-08-24T17:47:48.423Z,63.42
2022-08-24T17:50:19.216Z,63.80
2022-08-24T17:52:48.478Z,64.15
2022-08-24T17:55:18.456Z,64.55
2022-08-24T17:57:55.112Z,64.83
2022-08-24T18:00:23.108Z,65.19
2022-08-24T18:02:51.180Z,65.41
2022-08-24T18:05:19.352Z,65.77
2022-08-24T18:07:54.691Z,65.90
2022-08-24T18:10:25.207Z,66.03
2022-08-24T18:12:54.871Z,66.09
2022-08-24T18:15:35.405Z,66.32
2022-08-24T18:18:08.884Z,66.28
2022-08-24T18:20:39.329Z,66.36
2022-08-24T18:23:11.656Z,66.43
2022-08-24T18:25:45.815Z,66.52
2022-08-24T18:28:15.525Z,66.63
2022-08-24T18:30:44.063Z,66.82
2022-08-24T18:33:12.138Z,67.00
2022-08-24T18:35:40.169Z,67.14
2022-08-24T18:38:08.504Z,67.25
2022-08-24T18:40:37.084Z,67.44
2022-08-24T18:43:05.395Z,67.60
2022-08-24T18:45:35.721Z,67.79
2022-08-24T18:48:04.246Z,68.01
2022-08-24T18:50:33.454Z,68.18
2022-08-24T18:53:02.164Z,68.40
2022-08-24T18:55:30.578Z,68.63
2022-08-24T18:57:58.645Z,68.81
2022-08-24T19:00:26.775Z,69.00
2022-08-24T19:02:59.331Z,69.26
2022-08-24T19:05:27.333Z,69.55
2022-08-24T19:07:55.366Z,69.68
2022-08-24T19:10:26.127Z,69.79
2022-08-24T19:12:58.351Z,70.04
2022-08-24T19:15:34.636Z,70.15
2022-08-24T19:18:11.167Z,70.19
2022-08-24T19:20:44.679Z,70.30
2022-08-24T19:23:18.861Z,70.48
2022-08-24T19:25:47.217Z,70.63
2022-08-24T19:28:17.456Z,70.76
2022-08-24T19:30:46.880Z,70.94
2022-08-24T19:33:22.104Z,71.04
2022-08-24T19:35:51.664Z,71.27
2022-08-24T19:38:24.643Z,71.55
2022-08-24T19:40:54.144Z,71.82
2022-08-24T19:43:22.181Z,72.08
2022-08-24T19:46:03.434Z,72.38
2022-08-24T19:48:33.720Z,72.59
2022-08-24T19:51:03.291Z,72.78
2022-08-24T19:53:33.475Z,73.00
2022-08-24T19:56:01.746Z,73.17
2022-08-24T19:58:31.413Z,73.23
2022-08-24T20:01:05.652Z,73.33
2022-08-24T20:03:35.056Z,73.56
2022-08-24T20:06:03.157Z,73.70
2022-08-24T20:08:31.405Z,73.87
2022-08-24T20:11:00.544Z,74.00
2022-08-24T20:13:28.676Z,74.24
2022-08-24T20:15:57.215Z,74.45
2022-08-24T20:18:28.515Z,74.65
2022-08-24T20:20:57.920Z,74.89
2022-08-24T20:23:26.166Z,75.08
2022-08-24T20:25:54.600Z,75.26
2022-08-24T20:28:29.137Z,75.48
2022-08-24T20:30:57.436Z,75.62
2022-08-24T20:33:27.596Z,75.78
2022-08-24T20:35:56.206Z,75.91
2022-08-24T20:38:25.746Z,76.09
2022-08-24T20:40:59.687Z,76.30
2022-08-24T20:43:28.184Z,76.55
2022-08-24T20:45:56.739Z,76.64
2022-08-24T20:48:28.547Z,76.87
2022-08-24T20:50:56.535Z,77.09
2022-08-24T20:53:26.750Z,77.32
2022-08-24T20:55:56.692Z,77.56
2022-08-24T20:58:24.914Z,77.76
2022-08-24T21:00:52.997Z,77.96
2022-08-24T21:03:21.399Z,78.13
2022-08-24T21:05:52.252Z,78.31
2022-08-24T21:08:20.446Z,78.63
2022-08-24T21:10:49.746Z,78.80
2022-08-24T21:13:17.747Z,79.01
2022-08-24T21:15:46.401Z,79.37
2022-08-24T21:18:14.914Z,79.49
2022-08-24T21:20:49.266Z,79.70
2022-08-24T21:23:31.704Z,79.97
2022-08-24T21:26:02.187Z,80.16
2022-08-24T21:28:30.476Z,80.41
2022-08-24T21:31:01.405Z,80.61
2022-08-24T21:33:49.677Z,80.86
2022-08-24T21:36:17.871Z,81.08
2022-08-24T21:38:45.831Z,81.23
2022-08-24T21:41:15.623Z,81.48
2022-08-24T21:43:43.588Z,81.54
2022-08-24T21:46:11.733Z,81.63
2022-08-24T21:48:39.959Z,81.69
2022-08-24T21:51:08.160Z,81.90
2022-08-24T21:53:36.936Z,82.11
2022-08-24T21:56:05.360Z,82.13
2022-08-24T21:58:34.774Z,82.25
2022-08-24T22:01:03.883Z,82.47
2022-08-24T22:03:39.929Z,82.67
2022-08-24T22:06:09.596Z,82.79
2022-08-24T22:08:37.799Z,82.90
2022-08-24T22:11:06.688Z,83.23
2022-08-24T22:13:36.477Z,83.38
2022-08-24T22:16:05.634Z,83.59
2022-08-24T22:18:34.120Z,83.57
2022-08-24T22:21:07.754Z,83.75
2022-08-24T22:23:36.358Z,83.99
2022-08-24T22:26:05.560Z,84.18
2022-08-24T22:28:34.450Z,84.30
2022-08-24T22:31:04.119Z,84.29
2022-08-24T22:33:32.084Z,84.37
2022-08-24T22:36:00.066Z,84.52
2022-08-24T22:38:28.139Z,84.50
2022-08-24T22:40:56.520Z,84.62
2022-08-24T22:43:44.493Z,84.86
2022-08-24T22:46:14.048Z,84.91
2022-08-24T22:48:42.186Z,85.11
2022-08-24T22:51:10.826Z,85.09
2022-08-24T22:53:39.763Z,85.10
2022-08-24T22:56:14.975Z,85.28
2022-08-24T22:58:42.976Z,85.40
2022-08-24T23:01:10.959Z,85.65
2022-08-24T23:03:40.355Z,85.94
2022-08-24T23:06:08.767Z,86.11
2022-08-24T23:08:36.797Z,86.28
2022-08-24T23:11:04.824Z,86.36
2022-08-24T23:13:32.798Z,86.54
2022-08-24T23:16:01.340Z,86.59
2022-08-24T23:18:46.780Z,86.76
2022-08-24T23:21:16.327Z,86.96
2022-08-24T23:23:44.332Z,87.00
2022-08-24T23:26:18.228Z,87.19
2022-08-24T23:28:50.198Z,87.41
2022-08-24T23:31:19.983Z,87.55
2022-08-24T23:33:48.330Z,87.86
2022-08-24T23:36:21.015Z,88.02
2022-08-24T23:38:50.284Z,88.07
2022-08-24T23:41:20.888Z,88.15
2022-08-24T23:43:48.988Z,88.47
2022-08-24T23:46:17.627Z,88.63
2022-08-24T23:48:51.133Z,88.90
2022-08-24T23:51:25.484Z,89.14
2022-08-24T23:53:53.895Z,89.19
2022-08-24T23:56:25.268Z,89.28
2022-08-24T23:58:54.173Z,89.51
